sensor_id;sensor_type;location;lat;lon;timestamp;temperature;humidity
2435;DHT22;1228;51.022;6.764;2023-08-06T00:00:04;15.60;99.90
2435;DHT22;1228;51.022;6.764;2023-08-06T00:02:30;15.50;99.90
2435;DHT22;1228;51.022;6.764;2023-08-06T00:04:56;15.50;99.90
2435;DHT22;1228;51.022;6.764;2023-08-06T00:07:21;15.50;99.90
2435;DHT22;1228;51.022;6.764;2023-08-06T00:09:47;15.50;99.90
2435;DHT22;1228;51.022;6.764;2023-08-06T00:12:12;15.50;99.90
2435;DHT22;1228;51.022;6.764;2023-08-06T00:14:38;15.50;99.90
2435;DHT22;1228;51.022;6.764;2023-08-06T00:17:04;15.40;99.90
2435;DHT22;1228;51.022;6.764;2023-08-06T00:19:31;15.40;99.90
2435;DHT22;1228;51.022;6.764;2023-08-06T00:21:56;15.30;99.90
2435;DHT22;1228;51.022;6.764;2023-08-06T00:24:22;15.30;99.90
2435;DHT22;1228;51.022;6.764;2023-08-06T00:26:47;15.30;99.90
2435;DHT22;1228;51.022;6.764;2023-08-06T00:29:13;15.20;99.90
2435;DHT22;1228;51.022;6.764;2023-08-06T00:31:39;15.20;99.90
2435;DHT22;1228;51.022;6.764;2023-08-06T00:34:04;15.10;99.90
2435;DHT22;1228;51.022;6.764;2023-08-06T00:36:30;15.00;99.90
2435;DHT22;1228;51.022;6.764;2023-08-06T00:38:55;15.00;99.90
2435;DHT22;1228;51.022;6.764;2023-08-06T00:41:21;15.00;99.90
2435;DHT22;1228;51.022;6.764;2023-08-06T00:43:47;15.00;99.90
2435;DHT22;1228;51.022;6.764;2023-08-06T00:46:13;15.10;99.90
2435;DHT22;1228;51.022;6.764;2023-08-06T00:48:40;15.10;99.90
2435;DHT22;1228;51.022;6.764;2023-08-06T00:51:06;15.10;99.90
2435;DHT22;1228;51.022;6.764;2023-08-06T00:53:31;15.20;99.90
2435;DHT22;1228;51.022;6.764;2023-08-06T00:55:58;15.10;99.90
2435;DHT22;1228;51.022;6.764;2023-08-06T00:58:24;15.20;99.90
2435;DHT22;1228;51.022;6.764;2023-08-06T01:00:50;15.20;99.90
2435;DHT22;1228;51.022;6.764;2023-08-06T01:03:16;15.10;99.90
2435;DHT22;1228;51.022;6.764;2023-08-06T01:05:41;15.10;99.90
2435;DHT22;1228;51.022;6.764;2023-08-06T01:11:05;15.20;99.90
2435;DHT22;1228;51.022;6.764;2023-08-06T01:13:47;15.20;99.90
2435;DHT22;1228;51.022;6.764;2023-08-06T01:16:19;15.20;99.90
2435;DHT22;1228;51.022;6.764;2023-08-06T01:18:47;15.20;99.90
2435;DHT22;1228;51.022;6.764;2023-08-06T01:21:15;15.20;99.90
2435;DHT22;1228;51.022;6.764;2023-08-06T01:23:41;15.20;99.90
2435;DHT22;1228;51.022;6.764;2023-08-06T01:26:19;15.20;99.90
2435;DHT22;1228;51.022;6.764;2023-08-06T01:31:40;15.10;99.90
2435;DHT22;1228;51.022;6.764;2023-08-06T01:34:17;15.10;99.90
2435;DHT22;1228;51.022;6.764;2023-08-06T01:36:46;15.10;99.90
2435;DHT22;1228;51.022;6.764;2023-08-06T01:39:12;15.10;99.90
2435;DHT22;1228;51.022;6.764;2023-08-06T01:41:37;15.10;99.90
2435;DHT22;1228;51.022;6.764;2023-08-06T01:44:03;15.00;99.90
2435;DHT22;1228;51.022;6.764;2023-08-06T01:46:29;15.00;99.90
2435;DHT22;1228;51.022;6.764;2023-08-06T01:48:54;15.00;99.90
2435;DHT22;1228;51.022;6.764;2023-08-06T01:51:20;15.00;99.90
2435;DHT22;1228;51.022;6.764;2023-08-06T01:53:45;15.00;99.90
2435;DHT22;1228;51.022;6.764;2023-08-06T01:56:11;15.00;99.90
2435;DHT22;1228;51.022;6.764;2023-08-06T01:58:36;14.90;99.90
2435;DHT22;1228;51.022;6.764;2023-08-06T02:01:02;14.90;99.90
2435;DHT22;1228;51.022;6.764;2023-08-06T02:03:28;14.90;99.90
2435;DHT22;1228;51.022;6.764;2023-08-06T02:05:54;14.90;99.90
2435;DHT22;1228;51.022;6.764;2023-08-06T02:08:19;14.90;99.90
2435;DHT22;1228;51.022;6.764;2023-08-06T02:10:45;14.90;99.90
2435;DHT22;1228;51.022;6.764;2023-08-06T02:13:11;14.90;99.90
2435;DHT22;1228;51.022;6.764;2023-08-06T02:15:45;14.90;99.90
2435;DHT22;1228;51.022;6.764;2023-08-06T02:18:13;14.90;99.90
2435;DHT22;1228;51.022;6.764;2023-08-06T02:20:40;14.90;99.90
2435;DHT22;1228;51.022;6.764;2023-08-06T02:23:06;14.90;99.90
2435;DHT22;1228;51.022;6.764;2023-08-06T02:25:31;14.90;99.90
2435;DHT22;1228;51.022;6.764;2023-08-06T02:27:57;14.90;99.90
2435;DHT22;1228;51.022;6.764;2023-08-06T02:30:23;14.90;99.90
2435;DHT22;1228;51.022;6.764;2023-08-06T02:32:49;14.80;99.90
2435;DHT22;1228;51.022;6.764;2023-08-06T02:35:15;14.80;99.90
2435;DHT22;1228;51.022;6.764;2023-08-06T02:37:40;14.70;99.90
2435;DHT22;1228;51.022;6.764;2023-08-06T02:40:06;14.70;99.90
2435;DHT22;1228;51.022;6.764;2023-08-06T02:42:32;14.80;99.90
2435;DHT22;1228;51.022;6.764;2023-08-06T02:44:57;14.80;99.90
2435;DHT22;1228;51.022;6.764;2023-08-06T02:47:23;14.80;99.90
2435;DHT22;1228;51.022;6.764;2023-08-06T02:49:49;14.90;99.90
2435;DHT22;1228;51.022;6.764;2023-08-06T02:52:14;14.90;99.90
2435;DHT22;1228;51.022;6.764;2023-08-06T02:54:40;14.90;99.90
2435;DHT22;1228;51.022;6.764;2023-08-06T02:57:06;14.90;99.90
2435;DHT22;1228;51.022;6.764;2023-08-06T02:59:32;14.90;99.90
2435;DHT22;1228;51.022;6.764;2023-08-06T03:01:57;15.00;99.90
2435;DHT22;1228;51.022;6.764;2023-08-06T03:04:23;15.00;99.90
2435;DHT22;1228;51.022;6.764;2023-08-06T03:06:50;15.00;99.90
2435;DHT22;1228;51.022;6.764;2023-08-06T03:09:16;15.00;99.90
2435;DHT22;1228;51.022;6.764;2023-08-06T03:11:42;15.00;99.90
2435;DHT22;1228;51.022;6.764;2023-08-06T03:14:08;15.10;99.90
2435;DHT22;1228;51.022;6.764;2023-08-06T03:16:33;15.10;99.90
2435;DHT22;1228;51.022;6.764;2023-08-06T03:18:59;15.10;99.90
2435;DHT22;1228;51.022;6.764;2023-08-06T03:21:25;15.10;99.90
2435;DHT22;1228;51.022;6.764;2023-08-06T03:23:50;15.20;99.90
2435;DHT22;1228;51.022;6.764;2023-08-06T03:26:16;15.20;99.90
2435;DHT22;1228;51.022;6.764;2023-08-06T03:28:41;15.20;99.90
2435;DHT22;1228;51.022;6.764;2023-08-06T03:31:07;15.20;99.90
2435;DHT22;1228;51.022;6.764;2023-08-06T03:33:33;15.20;99.90
2435;DHT22;1228;51.022;6.764;2023-08-06T03:35:59;15.10;99.90
2435;DHT22;1228;51.022;6.764;2023-08-06T03:38:25;15.10;99.90
2435;DHT22;1228;51.022;6.764;2023-08-06T03:40:50;15.10;99.90
2435;DHT22;1228;51.022;6.764;2023-08-06T03:43:16;15.10;99.90
2435;DHT22;1228;51.022;6.764;2023-08-06T03:45:43;15.10;99.90
2435;DHT22;1228;51.022;6.764;2023-08-06T03:48:09;15.10;99.90
2435;DHT22;1228;51.022;6.764;2023-08-06T03:50:35;15.10;99.90
2435;DHT22;1228;51.022;6.764;2023-08-06T03:53:01;15.10;99.90
2435;DHT22;1228;51.022;6.764;2023-08-06T03:55:27;15.10;99.90
2435;DHT22;1228;51.022;6.764;2023-08-06T03:57:53;15.10;99.90
2435;DHT22;1228;51.022;6.764;2023-08-06T04:00:18;15.10;99.90
2435;DHT22;1228;51.022;6.764;2023-08-06T04:02:44;15.00;99.90
2435;DHT22;1228;51.022;6.764;2023-08-06T04:05:10;15.00;99.90
2435;DHT22;1228;51.022;6.764;2023-08-06T04:07:37;15.00;99.90
2435;DHT22;1228;51.022;6.764;2023-08-06T04:10:04;15.10;99.90
2435;DHT22;1228;51.022;6.764;2023-08-06T04:12:30;15.00;99.90
2435;DHT22;1228;51.022;6.764;2023-08-06T04:14:57;15.10;99.90
2435;DHT22;1228;51.022;6.764;2023-08-06T04:17:23;15.10;99.90
2435;DHT22;1228;51.022;6.764;2023-08-06T04:19:50;15.10;99.90
2435;DHT22;1228;51.022;6.764;2023-08-06T04:22:16;15.10;99.90
2435;DHT22;1228;51.022;6.764;2023-08-06T04:24:42;15.10;99.90
2435;DHT22;1228;51.022;6.764;2023-08-06T04:27:09;15.10;99.90
2435;DHT22;1228;51.022;6.764;2023-08-06T04:29:35;15.10;99.90
2435;DHT22;1228;51.022;6.764;2023-08-06T04:32:01;15.10;99.90
2435;DHT22;1228;51.022;6.764;2023-08-06T04:34:28;15.10;99.90
2435;DHT22;1228;51.022;6.764;2023-08-06T04:36:54;15.10;99.90
2435;DHT22;1228;51.022;6.764;2023-08-06T04:39:23;15.10;99.90
2435;DHT22;1228;51.022;6.764;2023-08-06T04:41:48;15.10;99.90
2435;DHT22;1228;51.022;6.764;2023-08-06T04:44:14;15.20;99.90
2435;DHT22;1228;51.022;6.764;2023-08-06T04:46:40;15.20;99.90
2435;DHT22;1228;51.022;6.764;2023-08-06T04:49:08;15.30;99.90
2435;DHT22;1228;51.022;6.764;2023-08-06T04:51:34;15.30;99.90
2435;DHT22;1228;51.022;6.764;2023-08-06T04:54:01;15.30;99.90
2435;DHT22;1228;51.022;6.764;2023-08-06T04:56:27;15.30;99.90
2435;DHT22;1228;51.022;6.764;2023-08-06T05:01:20;15.30;99.90
2435;DHT22;1228;51.022;6.764;2023-08-06T05:03:47;15.40;99.90
2435;DHT22;1228;51.022;6.764;2023-08-06T05:06:13;15.50;99.90
2435;DHT22;1228;51.022;6.764;2023-08-06T05:08:38;15.50;99.90
2435;DHT22;1228;51.022;6.764;2023-08-06T05:11:04;15.50;99.90
2435;DHT22;1228;51.022;6.764;2023-08-06T05:13:29;15.50;99.90
2435;DHT22;1228;51.022;6.764;2023-08-06T05:15:55;15.60;99.90
2435;DHT22;1228;51.022;6.764;2023-08-06T05:18:20;15.60;99.90
2435;DHT22;1228;51.022;6.764;2023-08-06T05:20:46;15.60;99.90
2435;DHT22;1228;51.022;6.764;2023-08-06T05:23:12;15.60;99.90
2435;DHT22;1228;51.022;6.764;2023-08-06T05:25:38;15.60;99.90
2435;DHT22;1228;51.022;6.764;2023-08-06T05:28:04;15.60;99.90
2435;DHT22;1228;51.022;6.764;2023-08-06T05:30:30;15.70;99.90
2435;DHT22;1228;51.022;6.764;2023-08-06T05:32:55;15.60;99.90
2435;DHT22;1228;51.022;6.764;2023-08-06T05:35:22;15.60;99.90
2435;DHT22;1228;51.022;6.764;2023-08-06T05:37:48;15.60;99.90
2435;DHT22;1228;51.022;6.764;2023-08-06T05:40:14;15.60;99.90
2435;DHT22;1228;51.022;6.764;2023-08-06T05:42:40;15.70;99.90
2435;DHT22;1228;51.022;6.764;2023-08-06T05:45:06;15.70;99.90
2435;DHT22;1228;51.022;6.764;2023-08-06T05:47:32;15.80;99.90
2435;DHT22;1228;51.022;6.764;2023-08-06T05:49:58;15.70;99.90
2435;DHT22;1228;51.022;6.764;2023-08-06T05:52:24;15.60;99.90
2435;DHT22;1228;51.022;6.764;2023-08-06T05:54:49;15.70;99.90
2435;DHT22;1228;51.022;6.764;2023-08-06T05:57:15;15.70;99.90
2435;DHT22;1228;51.022;6.764;2023-08-06T05:59:41;15.80;99.90
2435;DHT22;1228;51.022;6.764;2023-08-06T06:02:07;15.80;99.90
2435;DHT22;1228;51.022;6.764;2023-08-06T06:04:32;15.80;99.90
2435;DHT22;1228;51.022;6.764;2023-08-06T06:06:58;15.90;99.90
2435;DHT22;1228;51.022;6.764;2023-08-06T06:09:23;16.00;99.90
2435;DHT22;1228;51.022;6.764;2023-08-06T06:11:49;16.10;99.90
2435;DHT22;1228;51.022;6.764;2023-08-06T06:14:18;16.20;99.90
2435;DHT22;1228;51.022;6.764;2023-08-06T06:16:45;16.20;99.90
2435;DHT22;1228;51.022;6.764;2023-08-06T06:19:11;16.30;99.90
2435;DHT22;1228;51.022;6.764;2023-08-06T06:21:37;16.30;99.90
2435;DHT22;1228;51.022;6.764;2023-08-06T06:24:04;16.40;99.90
2435;DHT22;1228;51.022;6.764;2023-08-06T06:26:30;16.50;99.90
2435;DHT22;1228;51.022;6.764;2023-08-06T06:28:56;16.60;99.90
2435;DHT22;1228;51.022;6.764;2023-08-06T06:31:22;16.80;99.90
2435;DHT22;1228;51.022;6.764;2023-08-06T06:33:47;16.90;99.90
2435;DHT22;1228;51.022;6.764;2023-08-06T06:36:13;16.90;99.90
2435;DHT22;1228;51.022;6.764;2023-08-06T06:38:39;17.00;99.90
2435;DHT22;1228;51.022;6.764;2023-08-06T06:41:05;17.10;99.90
2435;DHT22;1228;51.022;6.764;2023-08-06T06:43:30;17.20;99.90
2435;DHT22;1228;51.022;6.764;2023-08-06T06:45:57;17.20;99.90
2435;DHT22;1228;51.022;6.764;2023-08-06T06:48:28;17.30;99.90
2435;DHT22;1228;51.022;6.764;2023-08-06T06:50:54;17.40;99.90
2435;DHT22;1228;51.022;6.764;2023-08-06T06:53:19;17.40;99.90
2435;DHT22;1228;51.022;6.764;2023-08-06T06:55:45;17.50;99.90
2435;DHT22;1228;51.022;6.764;2023-08-06T06:58:15;17.40;99.90
2435;DHT22;1228;51.022;6.764;2023-08-06T07:00:41;17.50;99.90
2435;DHT22;1228;51.022;6.764;2023-08-06T07:03:07;17.50;99.90
2435;DHT22;1228;51.022;6.764;2023-08-06T07:05:33;17.50;99.90
2435;DHT22;1228;51.022;6.764;2023-08-06T07:07:58;17.40;99.90
2435;DHT22;1228;51.022;6.764;2023-08-06T07:10:24;17.40;99.90
2435;DHT22;1228;51.022;6.764;2023-08-06T07:12:49;17.30;99.90
2435;DHT22;1228;51.022;6.764;2023-08-06T07:15:15;17.30;99.90
2435;DHT22;1228;51.022;6.764;2023-08-06T07:17:43;17.30;99.90
2435;DHT22;1228;51.022;6.764;2023-08-06T07:20:08;17.30;99.90
2435;DHT22;1228;51.022;6.764;2023-08-06T07:22:34;17.20;99.90
2435;DHT22;1228;51.022;6.764;2023-08-06T07:25:00;17.10;99.90
2435;DHT22;1228;51.022;6.764;2023-08-06T07:27:25;16.90;99.90
2435;DHT22;1228;51.022;6.764;2023-08-06T07:29:51;16.80;99.90
2435;DHT22;1228;51.022;6.764;2023-08-06T07:32:16;16.70;99.90
2435;DHT22;1228;51.022;6.764;2023-08-06T07:34:42;16.70;99.90
2435;DHT22;1228;51.022;6.764;2023-08-06T07:37:08;16.90;99.90
2435;DHT22;1228;51.022;6.764;2023-08-06T07:39:33;17.10;99.90
2435;DHT22;1228;51.022;6.764;2023-08-06T07:41:59;17.20;99.90
2435;DHT22;1228;51.022;6.764;2023-08-06T07:44:25;17.20;99.90
2435;DHT22;1228;51.022;6.764;2023-08-06T07:46:50;17.30;99.90
2435;DHT22;1228;51.022;6.764;2023-08-06T07:49:16;17.20;99.90
2435;DHT22;1228;51.022;6.764;2023-08-06T07:51:41;17.30;99.90
2435;DHT22;1228;51.022;6.764;2023-08-06T07:54:07;17.40;99.90
2435;DHT22;1228;51.022;6.764;2023-08-06T07:56:33;17.50;99.90
2435;DHT22;1228;51.022;6.764;2023-08-06T07:58:58;17.40;99.90
2435;DHT22;1228;51.022;6.764;2023-08-06T08:01:24;17.40;99.90
2435;DHT22;1228;51.022;6.764;2023-08-06T08:03:50;17.60;99.90
2435;DHT22;1228;51.022;6.764;2023-08-06T08:06:15;17.60;99.90
2435;DHT22;1228;51.022;6.764;2023-08-06T08:08:41;17.60;99.90
2435;DHT22;1228;51.022;6.764;2023-08-06T08:11:07;17.50;99.90
2435;DHT22;1228;51.022;6.764;2023-08-06T08:13:33;17.50;99.90
2435;DHT22;1228;51.022;6.764;2023-08-06T08:16:00;17.40;99.90
2435;DHT22;1228;51.022;6.764;2023-08-06T08:18:27;17.40;99.90
2435;DHT22;1228;51.022;6.764;2023-08-06T08:20:52;17.50;99.90
2435;DHT22;1228;51.022;6.764;2023-08-06T08:23:18;17.50;99.90
2435;DHT22;1228;51.022;6.764;2023-08-06T08:25:43;17.70;99.90
2435;DHT22;1228;51.022;6.764;2023-08-06T08:28:09;17.90;99.90
2435;DHT22;1228;51.022;6.764;2023-08-06T08:30:35;17.90;99.90
2435;DHT22;1228;51.022;6.764;2023-08-06T08:33:00;17.90;99.90
2435;DHT22;1228;51.022;6.764;2023-08-06T08:35:26;17.80;99.90
2435;DHT22;1228;51.022;6.764;2023-08-06T08:37:51;17.80;99.90
2435;DHT22;1228;51.022;6.764;2023-08-06T08:40:17;17.70;99.90
2435;DHT22;1228;51.022;6.764;2023-08-06T08:42:43;17.60;99.90
2435;DHT22;1228;51.022;6.764;2023-08-06T08:45:13;17.50;99.90
2435;DHT22;1228;51.022;6.764;2023-08-06T08:47:43;17.30;99.90
2435;DHT22;1228;51.022;6.764;2023-08-06T08:50:09;17.40;99.90
2435;DHT22;1228;51.022;6.764;2023-08-06T08:52:38;17.50;99.90
2435;DHT22;1228;51.022;6.764;2023-08-06T08:55:07;17.80;99.90
2435;DHT22;1228;51.022;6.764;2023-08-06T08:57:33;18.00;99.90
2435;DHT22;1228;51.022;6.764;2023-08-06T08:59:58;18.20;99.90
2435;DHT22;1228;51.022;6.764;2023-08-06T09:02:26;18.40;99.90
2435;DHT22;1228;51.022;6.764;2023-08-06T09:04:55;18.50;99.90
2435;DHT22;1228;51.022;6.764;2023-08-06T09:07:23;18.60;99.90
2435;DHT22;1228;51.022;6.764;2023-08-06T09:09:50;18.80;99.90
2435;DHT22;1228;51.022;6.764;2023-08-06T09:12:17;18.90;99.90
2435;DHT22;1228;51.022;6.764;2023-08-06T09:14:43;19.10;99.90
2435;DHT22;1228;51.022;6.764;2023-08-06T09:17:09;19.40;99.90
2435;DHT22;1228;51.022;6.764;2023-08-06T09:19:42;19.70;99.90
2435;DHT22;1228;51.022;6.764;2023-08-06T09:22:11;20.10;99.90
2435;DHT22;1228;51.022;6.764;2023-08-06T09:24:39;20.60;99.90
2435;DHT22;1228;51.022;6.764;2023-08-06T09:27:14;21.00;99.90
2435;DHT22;1228;51.022;6.764;2023-08-06T09:29:45;21.20;99.90
2435;DHT22;1228;51.022;6.764;2023-08-06T09:32:12;21.40;99.90
2435;DHT22;1228;51.022;6.764;2023-08-06T09:34:42;21.50;99.90
2435;DHT22;1228;51.022;6.764;2023-08-06T09:37:11;21.70;99.90
2435;DHT22;1228;51.022;6.764;2023-08-06T09:39:39;20.70;99.90
2435;DHT22;1228;51.022;6.764;2023-08-06T09:42:06;19.60;99.90
2435;DHT22;1228;51.022;6.764;2023-08-06T09:44:32;18.80;99.90
2435;DHT22;1228;51.022;6.764;2023-08-06T09:46:59;18.00;99.90
2435;DHT22;1228;51.022;6.764;2023-08-06T09:49:27;17.40;99.90
2435;DHT22;1228;51.022;6.764;2023-08-06T09:51:56;16.80;99.90
2435;DHT22;1228;51.022;6.764;2023-08-06T09:54:24;16.60;99.90
2435;DHT22;1228;51.022;6.764;2023-08-06T09:56:52;16.30;99.90
2435;DHT22;1228;51.022;6.764;2023-08-06T09:59:18;16.20;99.90
2435;DHT22;1228;51.022;6.764;2023-08-06T10:01:45;16.10;99.90
2435;DHT22;1228;51.022;6.764;2023-08-06T10:04:13;16.10;99.90
2435;DHT22;1228;51.022;6.764;2023-08-06T10:06:42;15.90;99.90
2435;DHT22;1228;51.022;6.764;2023-08-06T10:09:09;15.70;99.90
2435;DHT22;1228;51.022;6.764;2023-08-06T10:11:36;15.60;99.90
2435;DHT22;1228;51.022;6.764;2023-08-06T10:14:20;15.50;99.90
2435;DHT22;1228;51.022;6.764;2023-08-06T10:16:47;15.30;99.90
2435;DHT22;1228;51.022;6.764;2023-08-06T10:19:15;15.20;99.90
2435;DHT22;1228;51.022;6.764;2023-08-06T10:21:42;15.10;99.90
2435;DHT22;1228;51.022;6.764;2023-08-06T10:24:27;15.00;99.90
2435;DHT22;1228;51.022;6.764;2023-08-06T10:26:58;14.90;99.90
2435;DHT22;1228;51.022;6.764;2023-08-06T10:29:36;14.90;99.90
2435;DHT22;1228;51.022;6.764;2023-08-06T10:32:03;14.90;99.90
2435;DHT22;1228;51.022;6.764;2023-08-06T10:34:58;14.70;99.90
2435;DHT22;1228;51.022;6.764;2023-08-06T10:37:36;14.70;99.90
2435;DHT22;1228;51.022;6.764;2023-08-06T10:40:02;14.60;99.90
2435;DHT22;1228;51.022;6.764;2023-08-06T10:42:29;14.70;99.90
2435;DHT22;1228;51.022;6.764;2023-08-06T10:45:14;14.60;99.90
2435;DHT22;1228;51.022;6.764;2023-08-06T10:47:41;14.50;99.90
2435;DHT22;1228;51.022;6.764;2023-08-06T10:50:14;14.40;99.90
2435;DHT22;1228;51.022;6.764;2023-08-06T10:52:42;14.40;99.90
2435;DHT22;1228;51.022;6.764;2023-08-06T10:55:09;14.30;99.90
2435;DHT22;1228;51.022;6.764;2023-08-06T10:57:35;14.30;99.90
2435;DHT22;1228;51.022;6.764;2023-08-06T11:00:01;14.40;99.90
2435;DHT22;1228;51.022;6.764;2023-08-06T11:02:26;14.40;99.90
2435;DHT22;1228;51.022;6.764;2023-08-06T11:04:53;14.40;99.90
2435;DHT22;1228;51.022;6.764;2023-08-06T11:07:18;14.50;99.90
2435;DHT22;1228;51.022;6.764;2023-08-06T11:09:44;14.50;99.90
2435;DHT22;1228;51.022;6.764;2023-08-06T11:12:10;14.50;99.90
2435;DHT22;1228;51.022;6.764;2023-08-06T11:14:37;14.50;99.90
2435;DHT22;1228;51.022;6.764;2023-08-06T11:17:05;14.50;99.90
2435;DHT22;1228;51.022;6.764;2023-08-06T11:19:31;14.50;99.90
2435;DHT22;1228;51.022;6.764;2023-08-06T11:21:56;14.60;99.90
2435;DHT22;1228;51.022;6.764;2023-08-06T11:24:24;14.60;99.90
2435;DHT22;1228;51.022;6.764;2023-08-06T11:26:50;14.60;99.90
2435;DHT22;1228;51.022;6.764;2023-08-06T11:29:16;14.80;99.90
2435;DHT22;1228;51.022;6.764;2023-08-06T11:31:41;15.00;99.90
2435;DHT22;1228;51.022;6.764;2023-08-06T11:34:07;15.10;99.90
2435;DHT22;1228;51.022;6.764;2023-08-06T11:36:34;15.10;99.90
2435;DHT22;1228;51.022;6.764;2023-08-06T11:39:03;15.20;99.90
2435;DHT22;1228;51.022;6.764;2023-08-06T11:41:31;15.10;99.90
2435;DHT22;1228;51.022;6.764;2023-08-06T11:43:57;15.20;99.90
2435;DHT22;1228;51.022;6.764;2023-08-06T11:46:23;15.20;99.90
2435;DHT22;1228;51.022;6.764;2023-08-06T11:48:56;15.20;99.90
2435;DHT22;1228;51.022;6.764;2023-08-06T11:51:23;15.10;99.90
2435;DHT22;1228;51.022;6.764;2023-08-06T11:53:49;15.40;99.90
2435;DHT22;1228;51.022;6.764;2023-08-06T11:56:16;15.40;99.90
2435;DHT22;1228;51.022;6.764;2023-08-06T11:58:42;15.60;99.90
2435;DHT22;1228;51.022;6.764;2023-08-06T12:01:08;15.50;99.90
2435;DHT22;1228;51.022;6.764;2023-08-06T12:03:42;15.50;99.90
2435;DHT22;1228;51.022;6.764;2023-08-06T12:06:07;15.70;99.90
2435;DHT22;1228;51.022;6.764;2023-08-06T12:08:33;15.80;99.90
2435;DHT22;1228;51.022;6.764;2023-08-06T12:10:59;15.90;99.90
2435;DHT22;1228;51.022;6.764;2023-08-06T12:13:25;16.00;99.90
2435;DHT22;1228;51.022;6.764;2023-08-06T12:15:50;16.10;99.90
2435;DHT22;1228;51.022;6.764;2023-08-06T12:18:19;16.20;99.90
2435;DHT22;1228;51.022;6.764;2023-08-06T12:20:44;16.40;99.90
2435;DHT22;1228;51.022;6.764;2023-08-06T12:23:10;16.40;99.90
2435;DHT22;1228;51.022;6.764;2023-08-06T12:25:35;16.40;99.90
2435;DHT22;1228;51.022;6.764;2023-08-06T12:28:01;16.40;99.90
2435;DHT22;1228;51.022;6.764;2023-08-06T12:30:27;16.20;99.90
2435;DHT22;1228;51.022;6.764;2023-08-06T12:32:52;16.20;99.90
2435;DHT22;1228;51.022;6.764;2023-08-06T12:35:18;16.30;99.90
2435;DHT22;1228;51.022;6.764;2023-08-06T12:37:45;16.30;99.90
2435;DHT22;1228;51.022;6.764;2023-08-06T12:40:11;16.30;99.90
2435;DHT22;1228;51.022;6.764;2023-08-06T12:42:36;16.20;99.90
2435;DHT22;1228;51.022;6.764;2023-08-06T12:45:02;16.20;99.90
2435;DHT22;1228;51.022;6.764;2023-08-06T12:47:30;16.20;99.90
2435;DHT22;1228;51.022;6.764;2023-08-06T12:49:55;16.30;99.90
2435;DHT22;1228;51.022;6.764;2023-08-06T12:52:21;16.30;99.90
2435;DHT22;1228;51.022;6.764;2023-08-06T12:54:47;16.30;99.90
2435;DHT22;1228;51.022;6.764;2023-08-06T12:57:13;16.40;99.90
2435;DHT22;1228;51.022;6.764;2023-08-06T12:59:39;16.60;99.90
2435;DHT22;1228;51.022;6.764;2023-08-06T13:02:05;16.70;99.90
2435;DHT22;1228;51.022;6.764;2023-08-06T13:04:31;16.80;99.90
2435;DHT22;1228;51.022;6.764;2023-08-06T13:06:57;16.90;99.90
2435;DHT22;1228;51.022;6.764;2023-08-06T13:09:22;16.90;99.90
2435;DHT22;1228;51.022;6.764;2023-08-06T13:11:48;17.00;99.90
2435;DHT22;1228;51.022;6.764;2023-08-06T13:14:15;17.10;99.90
2435;DHT22;1228;51.022;6.764;2023-08-06T13:16:42;17.00;99.90
2435;DHT22;1228;51.022;6.764;2023-08-06T13:19:09;16.90;99.90
2435;DHT22;1228;51.022;6.764;2023-08-06T13:24:07;16.70;99.90
2435;DHT22;1228;51.022;6.764;2023-08-06T13:26:33;16.50;99.90
2435;DHT22;1228;51.022;6.764;2023-08-06T13:29:00;16.20;99.90
2435;DHT22;1228;51.022;6.764;2023-08-06T13:31:26;15.90;99.90
2435;DHT22;1228;51.022;6.764;2023-08-06T13:33:56;15.80;99.90
2435;DHT22;1228;51.022;6.764;2023-08-06T13:36:28;15.80;99.90
2435;DHT22;1228;51.022;6.764;2023-08-06T13:38:54;15.80;99.90
2435;DHT22;1228;51.022;6.764;2023-08-06T13:41:20;15.70;99.90
2435;DHT22;1228;51.022;6.764;2023-08-06T13:43:46;15.80;99.90
2435;DHT22;1228;51.022;6.764;2023-08-06T13:46:11;15.80;99.90
2435;DHT22;1228;51.022;6.764;2023-08-06T13:48:45;16.00;99.90
2435;DHT22;1228;51.022;6.764;2023-08-06T13:51:12;16.30;99.90
2435;DHT22;1228;51.022;6.764;2023-08-06T13:53:38;16.50;99.90
2435;DHT22;1228;51.022;6.764;2023-08-06T13:56:05;17.00;99.90
2435;DHT22;1228;51.022;6.764;2023-08-06T13:58:32;17.30;99.90
2435;DHT22;1228;51.022;6.764;2023-08-06T14:00:57;17.60;99.90
2435;DHT22;1228;51.022;6.764;2023-08-06T14:03:23;17.80;99.90
2435;DHT22;1228;51.022;6.764;2023-08-06T14:05:49;17.90;99.90
2435;DHT22;1228;51.022;6.764;2023-08-06T14:08:15;18.20;99.90
2435;DHT22;1228;51.022;6.764;2023-08-06T14:10:46;18.20;99.90
2435;DHT22;1228;51.022;6.764;2023-08-06T14:13:11;18.10;99.90
2435;DHT22;1228;51.022;6.764;2023-08-06T14:15:38;17.90;99.90
2435;DHT22;1228;51.022;6.764;2023-08-06T14:18:06;17.60;99.90
2435;DHT22;1228;51.022;6.764;2023-08-06T14:20:36;17.20;99.90
2435;DHT22;1228;51.022;6.764;2023-08-06T14:23:02;16.60;99.90
2435;DHT22;1228;51.022;6.764;2023-08-06T14:25:28;16.20;99.90
2435;DHT22;1228;51.022;6.764;2023-08-06T14:27:55;16.10;99.90
2435;DHT22;1228;51.022;6.764;2023-08-06T14:30:21;16.00;99.90
2435;DHT22;1228;51.022;6.764;2023-08-06T14:32:46;15.90;99.90
2435;DHT22;1228;51.022;6.764;2023-08-06T14:35:12;15.80;99.90
2435;DHT22;1228;51.022;6.764;2023-08-06T14:37:38;15.80;99.90
2435;DHT22;1228;51.022;6.764;2023-08-06T14:40:05;15.90;99.90
2435;DHT22;1228;51.022;6.764;2023-08-06T14:42:31;16.00;99.90
2435;DHT22;1228;51.022;6.764;2023-08-06T14:44:56;16.00;99.90
2435;DHT22;1228;51.022;6.764;2023-08-06T14:47:22;16.20;99.90
2435;DHT22;1228;51.022;6.764;2023-08-06T14:49:48;16.30;99.90
2435;DHT22;1228;51.022;6.764;2023-08-06T14:52:14;16.40;99.90
2435;DHT22;1228;51.022;6.764;2023-08-06T14:54:40;16.50;99.90
2435;DHT22;1228;51.022;6.764;2023-08-06T14:57:06;16.50;99.90
2435;DHT22;1228;51.022;6.764;2023-08-06T14:59:32;16.60;99.90
2435;DHT22;1228;51.022;6.764;2023-08-06T15:01:58;16.60;99.90
2435;DHT22;1228;51.022;6.764;2023-08-06T15:04:24;16.60;99.90
2435;DHT22;1228;51.022;6.764;2023-08-06T15:06:49;16.60;99.90
2435;DHT22;1228;51.022;6.764;2023-08-06T15:09:15;16.70;99.90
2435;DHT22;1228;51.022;6.764;2023-08-06T15:11:41;16.80;99.90
2435;DHT22;1228;51.022;6.764;2023-08-06T15:14:06;16.80;99.90
2435;DHT22;1228;51.022;6.764;2023-08-06T15:16:33;16.90;99.90
2435;DHT22;1228;51.022;6.764;2023-08-06T15:19:00;17.00;99.90
2435;DHT22;1228;51.022;6.764;2023-08-06T15:21:27;17.30;99.90
2435;DHT22;1228;51.022;6.764;2023-08-06T15:23:52;17.40;99.90
2435;DHT22;1228;51.022;6.764;2023-08-06T15:26:18;17.30;99.90
2435;DHT22;1228;51.022;6.764;2023-08-06T15:28:44;17.30;99.90
2435;DHT22;1228;51.022;6.764;2023-08-06T15:31:13;17.20;99.90
2435;DHT22;1228;51.022;6.764;2023-08-06T15:33:39;17.10;99.90
2435;DHT22;1228;51.022;6.764;2023-08-06T15:36:05;16.90;99.90
2435;DHT22;1228;51.022;6.764;2023-08-06T15:38:31;16.80;99.90
2435;DHT22;1228;51.022;6.764;2023-08-06T15:40:57;16.70;99.90
2435;DHT22;1228;51.022;6.764;2023-08-06T15:43:23;16.40;99.90
2435;DHT22;1228;51.022;6.764;2023-08-06T15:45:48;16.10;99.90
2435;DHT22;1228;51.022;6.764;2023-08-06T15:48:14;15.80;99.90
2435;DHT22;1228;51.022;6.764;2023-08-06T15:50:40;15.60;99.90
2435;DHT22;1228;51.022;6.764;2023-08-06T15:53:05;15.40;99.90
2435;DHT22;1228;51.022;6.764;2023-08-06T15:55:31;15.20;99.90
2435;DHT22;1228;51.022;6.764;2023-08-06T15:57:59;15.10;99.90
2435;DHT22;1228;51.022;6.764;2023-08-06T16:00:24;15.10;99.90
2435;DHT22;1228;51.022;6.764;2023-08-06T16:02:52;15.10;99.90
2435;DHT22;1228;51.022;6.764;2023-08-06T16:05:19;15.00;99.90
2435;DHT22;1228;51.022;6.764;2023-08-06T16:07:44;15.00;99.90